Terminal Aerodrome Forecast
Issued by NWS

Home | Current Version | Previous Version | Text Only | Print | Product List | Glossary On
Versions: 1 2 3 4 5 6 7 8 9 10 11 12 13 14 15 16 17 18 19 20 21 22 23 24 25 26 27 28
000
FTUS43 KDLH 041736
TAFHYR
TAF
KHYR 041736Z 0418/0518 24009G15KT P6SM SCT060 BKN200
     FM050000 VRB03KT P6SM SCT150
     FM050500 VRB03KT P6SM VCSH BKN090
     FM050900 VRB03KT 6SM -SHRA BKN080
     FM051300 VRB03KT P6SM SCT080
     FM051700 30009G16KT P6SM SKC
     AMD NOT SKED=

USA.gov is the U.S. government's official web portal to all federal, state and local government web resources and services.